createdAt,value
2023-02-24T00:01:18.829Z,6.45
2023-02-24T00:06:21.972Z,6.46
2023-02-24T00:11:24.891Z,6.47
2023-02-24T00:16:28.280Z,6.46
2023-02-24T00:21:31.757Z,6.47
2023-02-24T00:26:34.914Z,6.43
2023-02-24T00:31:42.048Z,6.46
2023-02-24T00:36:45.201Z,6.46
2023-02-24T00:41:47.979Z,6.46
2023-02-24T00:46:51.596Z,6.40
2023-02-24T00:51:55.256Z,6.35
2023-02-24T00:56:58.245Z,6.31
2023-02-24T01:02:03.674Z,6.32
2023-02-24T01:07:11.103Z,6.32
2023-02-24T01:12:32.739Z,6.31
2023-02-24T01:17:37.860Z,6.29
2023-02-24T01:22:40.978Z,6.28
2023-02-24T01:27:43.960Z,6.29
2023-02-24T01:32:47.748Z,6.29
2023-02-24T01:37:50.963Z,6.32
2023-02-24T01:42:53.932Z,6.33
2023-02-24T01:48:03.169Z,6.33
2023-02-24T01:53:08.502Z,6.31
2023-02-24T01:58:21.026Z,6.30
2023-02-24T02:03:42.126Z,6.28
2023-02-24T02:08:45.842Z,6.26
2023-02-24T02:13:51.194Z,6.28
2023-02-24T02:19:35.216Z,6.27
2023-02-24T02:24:52.820Z,6.29
2023-02-24T02:30:34.753Z,6.23
2023-02-24T02:35:46.498Z,6.21
2023-02-24T02:41:02.425Z,6.21
2023-02-24T02:46:15.854Z,6.22
2023-02-24T02:51:28.152Z,6.24
2023-02-24T02:56:42.611Z,6.22
2023-02-24T03:01:47.300Z,6.22
2023-02-24T03:06:57.243Z,6.20
2023-02-24T03:12:08.384Z,6.16
2023-02-24T03:17:21.540Z,6.12
2023-02-24T03:22:35.074Z,6.08
2023-02-24T03:27:53.580Z,6.04
2023-02-24T03:33:01.840Z,5.99
2023-02-24T03:38:06.485Z,5.95
2023-02-24T03:43:31.233Z,5.90
2023-02-24T03:48:40.249Z,5.89
2023-02-24T03:54:30.887Z,5.85
2023-02-24T03:59:56.335Z,5.82
2023-02-24T04:05:09.754Z,5.82
2023-02-24T04:10:31.484Z,5.82
2023-02-24T04:15:44.110Z,5.80
2023-02-24T04:20:53.342Z,5.76
2023-02-24T04:25:56.450Z,5.75
2023-02-24T04:31:06.206Z,5.70
2023-02-24T04:36:12.921Z,5.68
2023-02-24T04:41:21.508Z,5.63
2023-02-24T04:46:25.091Z,5.57
2023-02-24T04:51:31.873Z,5.54
2023-02-24T04:56:36.205Z,5.52
2023-02-24T05:01:42.383Z,5.51
2023-02-24T05:06:46.568Z,5.50
2023-02-24T05:11:52.574Z,5.47
2023-02-24T05:17:00.418Z,5.44
2023-02-24T05:22:04.815Z,5.43
2023-02-24T05:27:08.058Z,5.42
2023-02-24T05:32:11.123Z,5.38
2023-02-24T05:37:16.874Z,5.34
2023-02-24T05:42:20.079Z,5.30
2023-02-24T05:47:25.101Z,5.26
2023-02-24T05:52:28.049Z,5.25
2023-02-24T05:57:35.480Z,5.26
2023-02-24T06:02:38.565Z,5.30
2023-02-24T06:07:43.230Z,5.33
2023-02-24T06:12:46.422Z,5.40
2023-02-24T06:17:49.747Z,5.47
2023-02-24T06:22:58.275Z,5.58
2023-02-24T06:28:01.962Z,5.70
2023-02-24T06:33:06.067Z,5.82
2023-02-24T06:38:09.351Z,5.93
2023-02-24T06:43:12.344Z,6.06
2023-02-24T06:48:15.346Z,6.22
2023-02-24T06:53:19.051Z,6.36
2023-02-24T06:58:24.353Z,6.50
2023-02-24T07:03:50.297Z,6.62
2023-02-24T07:08:53.586Z,6.81
2023-02-24T07:13:57.635Z,7.03
2023-02-24T07:19:03.947Z,7.28
2023-02-24T07:24:25.174Z,7.48
2023-02-24T07:29:32.465Z,7.66
2023-02-24T07:34:40.089Z,7.86
2023-02-24T07:39:43.417Z,8.13
2023-02-24T07:44:51.775Z,8.28
2023-02-24T07:49:55.580Z,8.39
2023-02-24T07:54:58.693Z,8.47
2023-02-24T08:00:13.134Z,8.53
2023-02-24T08:05:21.915Z,8.65
2023-02-24T08:10:24.976Z,8.69
2023-02-24T08:15:34.105Z,8.63
2023-02-24T08:20:52.200Z,8.75
2023-02-24T08:25:55.538Z,9.29
2023-02-24T08:30:59.137Z,9.91
2023-02-24T08:36:02.756Z,10.67
2023-02-24T08:41:21.486Z,11.44
2023-02-24T08:46:33.021Z,11.75
2023-02-24T08:51:46.336Z,12.15
2023-02-24T08:56:50.048Z,12.77
2023-02-24T09:02:10.812Z,13.07
2023-02-24T09:07:24.257Z,13.49
2023-02-24T09:12:29.864Z,13.86
2023-02-24T09:17:45.627Z,14.40
2023-02-24T09:22:58.105Z,14.78
2023-02-24T09:28:29.291Z,14.75
2023-02-24T09:33:39.855Z,14.56
2023-02-24T09:38:59.560Z,14.30
2023-02-24T09:44:20.025Z,14.31
2023-02-24T09:49:40.233Z,14.23
2023-02-24T09:55:15.679Z,14.00
2023-02-24T10:00:25.845Z,13.72
2023-02-24T10:05:49.457Z,13.58
2023-02-24T10:11:09.437Z,13.48
2023-02-24T10:16:37.107Z,13.26
2023-02-24T10:22:27.651Z,13.65
2023-02-24T10:27:59.428Z,14.29
2023-02-24T10:33:05.457Z,14.69
2023-02-24T10:38:08.706Z,14.87
2023-02-24T10:43:18.782Z,15.18
2023-02-24T10:48:40.187Z,15.71
2023-02-24T10:53:53.077Z,16.25
2023-02-24T10:59:36.247Z,16.62
2023-02-24T11:04:58.638Z,16.74
2023-02-24T11:10:25.876Z,16.55
2023-02-24T11:16:00.355Z,16.72
2023-02-24T11:21:11.095Z,17.14
2023-02-24T11:26:23.489Z,17.49
2023-02-24T11:31:49.178Z,17.84
2023-02-24T11:37:32.438Z,17.88
2023-02-24T11:42:56.321Z,17.64
2023-02-24T11:48:20.120Z,17.09
2023-02-24T11:53:34.469Z,16.55
2023-02-24T11:58:58.371Z,16.37
2023-02-24T12:04:32.647Z,16.51
2023-02-24T12:10:16.058Z,16.71
2023-02-24T12:15:27.383Z,17.30
2023-02-24T12:21:02.146Z,17.34
2023-02-24T12:27:02.657Z,16.96
2023-02-24T12:32:33.270Z,16.41
2023-02-24T12:38:09.468Z,16.16
2023-02-24T12:43:32.475Z,16.27
2023-02-24T12:49:24.093Z,16.09
2023-02-24T12:54:43.612Z,15.84
2023-02-24T12:59:47.439Z,15.79
2023-02-24T13:05:11.110Z,15.62
2023-02-24T13:10:58.224Z,15.40
2023-02-24T13:16:01.320Z,15.46
2023-02-24T13:21:09.745Z,15.30
2023-02-24T13:26:22.151Z,15.25
2023-02-24T13:31:26.471Z,15.18
2023-02-24T13:36:31.849Z,15.04
2023-02-24T13:41:41.189Z,14.94
2023-02-24T13:47:20.509Z,14.85
2023-02-24T13:52:47.596Z,14.70
2023-02-24T13:58:20.461Z,14.55
2023-02-24T14:03:28.180Z,14.46
2023-02-24T14:08:51.005Z,14.40
2023-02-24T14:13:56.558Z,14.43
2023-02-24T14:19:02.420Z,14.39
2023-02-24T14:24:13.610Z,14.24
2023-02-24T14:29:27.313Z,13.93
2023-02-24T14:34:33.988Z,13.88
2023-02-24T14:39:37.379Z,13.91
2023-02-24T14:44:50.973Z,13.98
2023-02-24T14:50:02.408Z,13.96
2023-02-24T14:55:08.792Z,13.92
2023-02-24T15:00:24.770Z,13.92
2023-02-24T15:05:30.897Z,13.89
2023-02-24T15:10:34.140Z,13.83
2023-02-24T15:15:39.299Z,13.69
2023-02-24T15:20:43.191Z,13.57
2023-02-24T15:25:46.729Z,13.46
2023-02-24T15:31:10.883Z,13.26
2023-02-24T15:36:24.276Z,13.10
2023-02-24T15:41:48.292Z,12.94
2023-02-24T15:46:51.503Z,12.71
2023-02-24T15:51:59.860Z,12.57
2023-02-24T15:57:05.380Z,12.45
2023-02-24T16:02:35.058Z,12.30
2023-02-24T16:07:39.742Z,12.17
2023-02-24T16:13:00.238Z,12.03
2023-02-24T16:18:03.956Z,11.99
2023-02-24T16:23:06.704Z,11.88
2023-02-24T16:28:15.733Z,11.78
2023-02-24T16:33:23.939Z,11.73
2023-02-24T16:38:27.230Z,11.70
2023-02-24T16:43:30.237Z,11.70
2023-02-24T16:48:37.473Z,11.65
2023-02-24T16:53:41.272Z,11.55
2023-02-24T16:58:44.211Z,11.41
2023-02-24T17:03:54.004Z,11.26
2023-02-24T17:08:56.976Z,11.13
2023-02-24T17:14:00.185Z,11.04
2023-02-24T17:19:03.190Z,11.04
2023-02-24T17:24:06.595Z,10.95
2023-02-24T17:29:10.540Z,10.93
2023-02-24T17:34:13.439Z,10.94
2023-02-24T17:39:16.525Z,11.01
2023-02-24T17:44:19.280Z,11.05
2023-02-24T17:49:22.188Z,11.06
2023-02-24T17:54:25.199Z,11.13
2023-02-24T17:59:29.269Z,11.10
2023-02-24T18:04:32.308Z,11.05
2023-02-24T18:09:35.727Z,10.99
2023-02-24T18:14:38.726Z,10.96
2023-02-24T18:19:42.041Z,10.96
2023-02-24T18:24:45.041Z,10.98
2023-02-24T18:29:48.103Z,10.92
2023-02-24T18:34:51.096Z,10.87
2023-02-24T18:39:54.123Z,10.91
2023-02-24T18:44:57.194Z,10.88
2023-02-24T18:50:00.223Z,10.83
2023-02-24T18:55:04.042Z,10.82
2023-02-24T19:00:07.981Z,10.80
2023-02-24T19:05:11.209Z,10.75
2023-02-24T19:10:14.165Z,10.81
2023-02-24T19:15:19.654Z,10.84
2023-02-24T19:20:22.825Z,10.81
2023-02-24T19:25:25.703Z,10.78
2023-02-24T19:30:28.654Z,10.70
2023-02-24T19:35:31.650Z,10.68
2023-02-24T19:40:37.935Z,10.67
2023-02-24T19:45:44.343Z,10.65
2023-02-24T19:50:47.381Z,10.54
2023-02-24T19:55:51.133Z,10.45
2023-02-24T20:00:54.194Z,10.41
2023-02-24T20:05:57.216Z,10.39
2023-02-24T20:11:05.739Z,10.32
2023-02-24T20:16:15.754Z,10.23
2023-02-24T20:21:18.687Z,10.20
2023-02-24T20:26:22.003Z,10.16
2023-02-24T20:31:25.006Z,10.09
2023-02-24T20:36:29.619Z,10.10
2023-02-24T20:41:33.572Z,10.03
2023-02-24T20:46:37.526Z,10.03
2023-02-24T20:51:41.127Z,10.04
2023-02-24T20:56:45.726Z,10.05
2023-02-24T21:01:50.442Z,10.03
2023-02-24T21:06:54.399Z,10.03
2023-02-24T21:11:57.700Z,9.96
2023-02-24T21:17:00.629Z,9.86
2023-02-24T21:22:05.407Z,9.78
2023-02-24T21:27:09.586Z,9.65
2023-02-24T21:32:12.669Z,9.59
2023-02-24T21:37:15.935Z,9.55
2023-02-24T21:42:19.155Z,9.49
2023-02-24T21:47:21.902Z,9.48
2023-02-24T21:52:25.154Z,9.39
2023-02-24T21:57:28.627Z,9.27
2023-02-24T22:02:31.515Z,9.22
2023-02-24T22:07:36.921Z,9.14
2023-02-24T22:12:40.758Z,9.04
2023-02-24T22:17:43.519Z,9.00
2023-02-24T22:22:46.408Z,8.93
2023-02-24T22:27:49.414Z,8.88
2023-02-24T22:32:52.502Z,8.79
2023-02-24T22:37:55.587Z,8.65
2023-02-24T22:42:58.828Z,8.57
2023-02-24T22:48:01.827Z,8.48
2023-02-24T22:53:05.965Z,8.35
2023-02-24T22:58:09.446Z,8.22
2023-02-24T23:03:19.919Z,7.99
2023-02-24T23:08:23.759Z,7.74
2023-02-24T23:13:26.788Z,7.54
2023-02-24T23:18:30.962Z,7.35
2023-02-24T23:23:34.832Z,7.11
2023-02-24T23:28:39.105Z,6.89
2023-02-24T23:33:42.023Z,6.66
2023-02-24T23:38:45.698Z,6.51
2023-02-24T23:43:48.984Z,6.33
2023-02-24T23:48:54.509Z,6.17
2023-02-24T23:53:57.461Z,6.00
2023-02-24T23:59:00.553Z,5.80
